Time;durP1;ratioP1;P1;durP2;ratioP2;P2;SDS_P1;SDS_P2;PMS_P1;PMS_P2;Temp;Humidity;BMP_temperature;BMP_pressure;BME280_temperature;BME280_humidity;BME280_pressure;Samples;Min_cycle;Max_cycle;Signal;HPM_P1;HPM_P2
2021/08/02 00:00:06;;;;;;;3.15;1.73;;;16.10;97.60;;;;;;4991455;28;20034;-75
2021/08/02 00:02:45;;;;;;;3.88;1.50;;;16.10;97.60;;;;;;4990860;28;20022;-75
2021/08/02 00:05:12;;;;;;;5.35;1.98;;;16.20;97.60;;;;;;4991365;28;20010;-75
2021/08/02 00:07:41;;;;;;;4.72;2.03;;;16.10;97.50;;;;;;4990785;28;20038;-75
2021/08/02 00:10:13;;;;;;;2.63;1.63;;;16.10;97.50;;;;;;4994670;28;20026;-75
2021/08/02 00:12:47;;;;;;;4.70;1.58;;;16.10;97.50;;;;;;4996034;28;20026;-74
2021/08/02 00:15:15;;;;;;;3.00;1.67;;;16.10;97.50;;;;;;4993831;28;20023;-74
2021/08/02 00:17:43;;;;;;;6.68;2.00;;;16.20;97.50;;;;;;4994304;28;20022;-75
2021/08/02 00:20:15;;;;;;;3.45;1.77;;;16.10;97.50;;;;;;4993585;28;20026;-75
2021/08/02 00:22:41;;;;;;;2.60;1.65;;;16.20;97.40;;;;;;4994483;28;20018;-75
2021/08/02 00:25:08;;;;;;;5.18;1.85;;;16.10;97.50;;;;;;4993594;28;20023;-74
2021/08/02 00:27:34;;;;;;;5.18;1.92;;;16.10;97.50;;;;;;4995457;28;20037;-75
2021/08/02 00:30:01;;;;;;;5.32;1.67;;;16.10;97.40;;;;;;4994112;28;20025;-76
2021/08/02 00:32:27;;;;;;;3.75;1.55;;;16.10;97.40;;;;;;4994039;28;20148;-74
2021/08/02 00:34:52;;;;;;;4.22;2.08;;;16.10;97.40;;;;;;4995333;28;20053;-74
2021/08/02 00:37:27;;;;;;;3.22;1.63;;;16.10;97.40;;;;;;4994314;28;20057;-74
2021/08/02 00:40:01;;;;;;;4.90;1.60;;;16.10;97.40;;;;;;4994180;28;20022;-75
2021/08/02 00:42:57;;;;;;;2.83;1.65;;;16.10;97.40;;;;;;4994007;28;20018;-74
2021/08/02 00:45:28;;;;;;;3.70;1.83;;;16.10;97.30;;;;;;4994810;28;20014;-74
2021/08/02 00:48:07;;;;;;;4.22;1.83;;;16.10;97.10;;;;;;4995114;28;20022;-74
2021/08/02 00:50:36;;;;;;;4.90;1.77;;;16.10;97.20;;;;;;4993838;28;20018;-74
2021/08/02 00:53:11;;;;;;;4.07;1.50;;;16.10;97.20;;;;;;4993300;28;20022;-76
2021/08/02 00:55:39;;;;;;;4.38;1.80;;;16.10;97.20;;;;;;4995286;28;20089;-74
2021/08/02 00:58:09;;;;;;;4.70;1.85;;;16.10;97.10;;;;;;4992889;28;20470;-74
2021/08/02 01:00:35;;;;;;;4.97;2.00;;;16.20;97.20;;;;;;4993663;28;20038;-73
2021/08/02 01:03:07;;;;;;;3.03;1.60;;;16.20;97.10;;;;;;4993525;28;20049;-73
2021/08/02 01:05:35;;;;;;;5.32;1.92;;;16.10;97.10;;;;;;4994576;28;20069;-74
2021/08/02 01:08:13;;;;;;;1.92;1.20;;;16.10;97.10;;;;;;4994640;28;20046;-74
2021/08/02 01:10:45;;;;;;;4.45;1.67;;;16.20;97.20;;;;;;4994691;28;20026;-74
2021/08/02 01:13:12;;;;;;;;;;;16.20;97.10;;;;;;4994583;28;20015;-74
2021/08/02 01:15:40;;;;;;;2.33;1.52;;;16.10;96.90;;;;;;4994559;28;19982;-74
2021/08/02 01:18:07;;;;;;;8.50;2.28;;;16.20;96.90;;;;;;4993891;28;20026;-74
2021/08/02 01:20:34;;;;;;;5.03;1.77;;;16.10;96.90;;;;;;4992823;28;20034;-74
2021/08/02 01:23:05;;;;;;;4.20;1.50;;;16.10;96.70;;;;;;4993147;28;20026;-74
2021/08/02 01:25:33;;;;;;;3.80;1.70;;;16.00;96.60;;;;;;4993062;28;20014;-75
2021/08/02 01:28:14;;;;;;;3.67;1.60;;;15.90;96.80;;;;;;4992915;28;20089;-74
2021/08/02 01:30:48;;;;;;;5.68;1.92;;;15.90;96.90;;;;;;4992971;28;20442;-74
2021/08/02 01:33:15;;;;;;;3.45;1.52;;;15.80;96.80;;;;;;4993650;28;20468;-74
2021/08/02 01:35:41;;;;;;;2.88;1.52;;;15.90;96.80;;;;;;4992867;28;20446;-74
2021/08/02 01:38:07;;;;;;;5.45;1.92;;;15.90;96.60;;;;;;4992270;28;20018;-74
2021/08/02 01:40:34;;;;;;;4.00;1.83;;;15.80;96.60;;;;;;4994119;28;20045;-74
2021/08/02 01:43:05;;;;;;;4.05;1.88;;;15.90;96.70;;;;;;4994112;28;20026;-74
2021/08/02 01:45:41;;;;;;;5.20;1.58;;;15.90;96.70;;;;;;4994333;28;20046;-74
2021/08/02 01:48:15;;;;;;;2.55;1.45;;;15.90;96.70;;;;;;4993105;28;20077;-74
2021/08/02 01:50:56;;;;;;;2.42;1.30;;;15.90;96.60;;;;;;4992857;28;20363;-74
2021/08/02 01:53:39;;;;;;;3.42;1.58;;;15.90;96.50;;;;;;4992020;28;20077;-74
2021/08/02 01:56:06;;;;;;;4.00;1.50;;;15.90;96.60;;;;;;4993561;28;20018;-74
2021/08/02 01:58:37;;;;;;;4.15;1.90;;;15.90;96.50;;;;;;4992112;28;20029;-74
2021/08/02 02:01:03;;;;;;;;;;;15.90;96.50;;;;;;4992947;28;20022;-74
2021/08/02 02:03:30;;;;;;;3.72;1.65;;;15.90;96.40;;;;;;4991737;28;19952;-74
2021/08/02 02:06:06;;;;;;;3.53;1.75;;;15.90;96.30;;;;;;4992129;28;20090;-74
2021/08/02 02:08:42;;;;;;;2.75;1.52;;;16.00;96.50;;;;;;4991757;28;20066;-74
2021/08/02 02:11:09;;;;;;;5.22;1.80;;;16.00;96.50;;;;;;4991957;28;20049;-77
2021/08/02 02:13:38;;;;;;;2.95;1.50;;;16.00;96.20;;;;;;4992173;28;20358;-74
2021/08/02 02:16:06;;;;;;;3.20;1.50;;;16.00;96.20;;;;;;4993485;28;20027;-74
2021/08/02 02:18:35;;;;;;;4.18;1.73;;;16.00;96.40;;;;;;4991391;28;20029;-74
2021/08/02 02:21:02;;;;;;;4.68;2.05;;;16.00;96.40;;;;;;4993371;28;20025;-73
2021/08/02 02:23:29;;;;;;;3.85;1.67;;;16.00;96.40;;;;;;4991418;28;20785;-73
2021/08/02 02:25:56;;;;;;;5.13;2.10;;;16.00;96.40;;;;;;4993285;28;20104;-73
2021/08/02 02:28:22;;;;;;;4.30;1.98;;;16.00;96.10;;;;;;4992635;28;20026;-74
2021/08/02 02:30:51;;;;;;;6.05;1.98;;;15.90;96.20;;;;;;4993237;28;20469;-73
2021/08/02 02:33:18;;;;;;;3.90;1.80;;;15.90;96.30;;;;;;4992249;28;20072;-73
2021/08/02 02:35:46;;;;;;;5.15;2.28;;;16.00;96.20;;;;;;4991824;28;20442;-73
2021/08/02 02:38:14;;;;;;;5.47;1.85;;;15.90;96.10;;;;;;4991135;28;20022;-73
2021/08/02 02:40:43;;;;;;;5.60;1.95;;;15.90;96.10;;;;;;4992980;28;20038;-73
2021/08/02 02:43:10;;;;;;;5.72;1.80;;;15.90;96.20;;;;;;4991785;28;20030;-74
2021/08/02 02:45:37;;;;;;;3.80;1.73;;;15.90;96.10;;;;;;4993326;28;20034;-73
2021/08/02 02:48:05;;;;;;;3.47;2.00;;;15.90;96.10;;;;;;4992946;28;20063;-73
2021/08/02 02:50:33;;;;;;;4.28;2.13;;;15.90;96.10;;;;;;4990976;28;20026;-73
2021/08/02 02:53:01;;;;;;;5.20;2.15;;;15.90;96.10;;;;;;4991718;28;20022;-74
2021/08/02 02:55:29;;;;;;;2.97;1.88;;;16.00;96.20;;;;;;4991024;28;20014;-73
2021/08/02 02:57:55;;;;;;;4.20;1.95;;;16.00;96.20;;;;;;4991491;28;20022;-73
2021/08/02 03:00:21;;;;;;;4.15;1.98;;;16.00;96.20;;;;;;4990974;28;20343;-73
2021/08/02 03:02:50;;;;;;;4.45;2.20;;;16.00;96.00;;;;;;4992813;28;20089;-73
2021/08/02 03:05:18;;;;;;;3.80;2.25;;;16.00;96.10;;;;;;4991800;28;20022;-74
2021/08/02 03:07:44;;;;;;;5.32;2.25;;;16.00;96.10;;;;;;4991105;28;20116;-73
2021/08/02 03:10:12;;;;;;;3.67;1.75;;;16.10;96.10;;;;;;4992965;28;20014;-73
2021/08/02 03:12:38;;;;;;;3.88;1.73;;;16.00;96.20;;;;;;4992825;28;20026;-73
2021/08/02 03:15:04;;;;;;;6.45;1.95;;;16.10;96.30;;;;;;4991340;28;20389;-74
2021/08/02 03:17:30;;;;;;;3.63;2.00;;;16.10;96.30;;;;;;4992169;28;20066;-73
2021/08/02 03:19:56;;;;;;;3.63;1.80;;;16.10;96.30;;;;;;4991586;28;20026;-73
2021/08/02 03:22:37;;;;;;;5.30;1.98;;;16.10;96.20;;;;;;4992056;28;20014;-74
2021/08/02 03:25:13;;;;;;;3.35;1.85;;;16.20;96.30;;;;;;4993119;28;20029;-73
2021/08/02 03:27:50;;;;;;;2.90;1.40;;;16.10;96.20;;;;;;4991733;28;20018;-74
2021/08/02 03:30:16;;;;;;;2.97;1.65;;;16.10;96.10;;;;;;4991739;28;20057;-74
2021/08/02 03:32:45;;;;;;;4.25;1.65;;;16.10;96.00;;;;;;4991326;28;20443;-74
2021/08/02 03:35:13;;;;;;;4.32;1.70;;;16.10;95.90;;;;;;4992566;28;20022;-74
2021/08/02 03:37:41;;;;;;;3.22;1.40;;;16.10;96.00;;;;;;4992368;28;20057;-74
2021/08/02 03:40:09;;;;;;;4.65;1.48;;;16.10;96.00;;;;;;4991184;28;20485;-74
2021/08/02 03:42:40;;;;;;;7.53;1.83;;;16.10;96.00;;;;;;4992422;28;20118;-74
2021/08/02 03:45:06;;;;;;;3.42;1.25;;;16.10;95.90;;;;;;4995112;28;20019;-74
2021/08/02 03:47:32;;;;;;;5.68;1.58;;;16.10;95.90;;;;;;4995839;28;20026;-74
2021/08/02 03:49:58;;;;;;;2.28;1.25;;;16.10;96.00;;;;;;4994868;28;20022;-74
2021/08/02 03:52:25;;;;;;;2.85;1.40;;;16.10;95.90;;;;;;4994289;28;20015;-74
2021/08/02 03:54:50;;;;;;;3.00;1.35;;;16.10;95.90;;;;;;4995790;28;20366;-74
2021/08/02 03:57:18;;;;;;;3.00;1.33;;;16.10;95.80;;;;;;4995347;28;20033;-75
2021/08/02 03:59:49;;;;;;;4.82;1.27;;;16.10;95.90;;;;;;4994662;28;20443;-74
2021/08/02 04:02:15;;;;;;;2.70;1.30;;;16.00;95.40;;;;;;4994377;28;20037;-77
2021/08/02 04:04:41;;;;;;;2.40;1.50;;;16.00;95.40;;;;;;4995585;28;20018;-74
2021/08/02 04:07:06;;;;;;;3.90;1.50;;;16.00;95.50;;;;;;4995917;28;20038;-74
2021/08/02 04:09:32;;;;;;;3.13;1.23;;;15.90;95.60;;;;;;4995227;28;20042;-74
2021/08/02 04:11:58;;;;;;;4.28;1.50;;;15.90;95.20;;;;;;4994756;28;20343;-74
2021/08/02 04:14:23;;;;;;;3.00;1.40;;;15.90;95.50;;;;;;4995141;28;20015;-74
2021/08/02 04:16:49;;;;;;;3.88;1.40;;;15.90;95.40;;;;;;4997133;28;20095;-74
2021/08/02 04:19:15;;;;;;;4.03;1.10;;;15.90;95.50;;;;;;5019805;28;20018;-74
2021/08/02 04:21:41;;;;;;;3.20;1.40;;;15.90;95.50;;;;;;5006127;28;20026;-74
2021/08/02 04:24:07;;;;;;;2.78;1.15;;;16.00;95.50;;;;;;5026010;28;20116;-74
2021/08/02 04:26:32;;;;;;;3.78;1.05;;;15.90;95.40;;;;;;5006883;28;20074;-74
2021/08/02 04:28:58;;;;;;;1.52;1.08;;;16.00;95.40;;;;;;5002091;28;20058;-74
2021/08/02 04:31:29;;;;;;;3.85;1.15;;;16.00;95.50;;;;;;5021243;28;20018;-74
2021/08/02 04:33:55;;;;;;;;;;;15.90;95.50;;;;;;5002481;28;20053;-74
2021/08/02 04:36:22;;;;;;;3.53;1.17;;;15.90;95.30;;;;;;4999623;28;20276;-75
2021/08/02 04:38:48;;;;;;;2.25;1.00;;;15.90;95.40;;;;;;5025388;28;20126;-74
2021/08/02 04:41:14;;;;;;;3.10;1.40;;;15.90;95.30;;;;;;5027730;28;20113;-75
2021/08/02 04:43:40;;;;;;;3.53;1.40;;;15.80;95.30;;;;;;5001509;28;20122;-74
2021/08/02 04:46:05;;;;;;;2.88;1.30;;;15.90;95.40;;;;;;5024438;28;20056;-74
2021/08/02 04:48:31;;;;;;;2.55;1.17;;;15.90;95.50;;;;;;5028122;28;20061;-75
2021/08/02 04:50:57;;;;;;;2.35;1.30;;;15.90;95.50;;;;;;5029076;28;20116;-75
2021/08/02 04:53:22;;;;;;;3.05;1.23;;;15.90;95.50;;;;;;5028654;28;20109;-78
2021/08/02 04:55:48;;;;;;;2.33;1.10;;;15.90;95.50;;;;;;5013258;28;20058;-74
2021/08/02 04:58:14;;;;;;;2.45;1.08;;;15.90;95.30;;;;;;5013595;28;20026;-74
2021/08/02 05:00:39;;;;;;;4.82;1.30;;;15.90;95.30;;;;;;5028238;28;20034;-74
2021/08/02 05:03:05;;;;;;;3.72;1.30;;;15.90;95.20;;;;;;5028992;28;20049;-74
2021/08/02 05:05:31;;;;;;;2.55;1.42;;;15.80;95.00;;;;;;5027679;28;20064;-74
2021/08/02 05:07:56;;;;;;;3.33;1.08;;;15.80;95.10;;;;;;5003147;28;20077;-76
2021/08/02 05:10:22;;;;;;;3.25;1.05;;;15.70;95.20;;;;;;5006932;28;20037;-72
2021/08/02 05:12:51;;;;;;;2.28;1.20;;;15.80;95.30;;;;;;5013502;28;20025;-74
2021/08/02 05:15:16;;;;;;;5.82;2.35;;;15.80;95.30;;;;;;5011821;28;20030;-73
2021/08/02 05:17:42;;;;;;;3.65;1.40;;;15.80;95.10;;;;;;5026249;28;20049;-74
2021/08/02 05:20:08;;;;;;;2.47;1.50;;;15.70;95.30;;;;;;5026037;28;20034;-74
2021/08/02 05:22:34;;;;;;;4.43;1.27;;;15.80;95.20;;;;;;4995604;28;20057;-75
2021/08/02 05:25:00;;;;;;;2.97;1.20;;;15.70;95.30;;;;;;4992250;28;20066;-75
2021/08/02 05:27:25;;;;;;;1.63;1.20;;;15.70;95.30;;;;;;4991865;28;20031;-75
2021/08/02 05:29:51;;;;;;;2.28;1.10;;;15.80;95.40;;;;;;4990654;28;20018;-75
2021/08/02 05:32:17;;;;;;;2.63;1.30;;;15.80;95.30;;;;;;4989616;28;20022;-74
2021/08/02 05:34:44;;;;;;;3.28;1.20;;;15.80;95.30;;;;;;5000478;28;20030;-74
2021/08/02 05:37:11;;;;;;;1.90;1.30;;;15.80;95.30;;;;;;5026730;28;20049;-76
2021/08/02 05:39:38;;;;;;;4.72;1.13;;;15.80;95.20;;;;;;5011039;28;20052;-75
2021/08/02 05:42:04;;;;;;;2.30;1.10;;;15.80;95.60;;;;;;5011436;28;20026;-74
2021/08/02 05:44:30;;;;;;;3.53;1.42;;;15.80;95.20;;;;;;4998669;28;20569;-74
2021/08/02 05:46:56;;;;;;;2.78;1.20;;;15.80;95.10;;;;;;5003436;28;20104;-78
2021/08/02 05:49:21;;;;;;;2.13;1.20;;;15.80;95.20;;;;;;5008818;28;20026;-79
2021/08/02 05:51:49;;;;;;;2.70;1.17;;;15.80;95.10;;;;;;4992667;28;20019;-79
2021/08/02 05:54:15;;;;;;;2.05;1.20;;;15.80;95.10;;;;;;4992225;28;20015;-79
2021/08/02 05:56:41;;;;;;;2.75;1.38;;;15.80;95.10;;;;;;4992384;28;20076;-79
2021/08/02 05:59:07;;;;;;;4.47;1.35;;;15.90;95.10;;;;;;4993280;28;20030;-79
2021/08/02 06:01:33;;;;;;;2.58;1.33;;;15.90;94.90;;;;;;4991833;28;20019;-79
2021/08/02 06:03:58;;;;;;;3.30;1.25;;;15.90;94.80;;;;;;4992082;28;20045;-79
2021/08/02 06:06:24;;;;;;;3.45;1.27;;;15.90;94.60;;;;;;4992648;28;20028;-80
2021/08/02 06:08:50;;;;;;;2.40;1.27;;;15.90;94.40;;;;;;5008659;28;20042;-79
2021/08/02 06:11:16;;;;;;;3.13;1.35;;;15.90;94.50;;;;;;4993954;28;20049;-79
2021/08/02 06:13:41;;;;;;;4.50;1.30;;;15.90;94.60;;;;;;5007830;28;20076;-79
2021/08/02 06:16:07;;;;;;;3.15;1.23;;;16.00;94.70;;;;;;4992396;28;20403;-79
2021/08/02 06:18:33;;;;;;;3.40;1.30;;;16.00;94.70;;;;;;4993539;28;20280;-79
2021/08/02 06:20:58;;;;;;;2.10;1.20;;;16.00;94.70;;;;;;4993373;28;20026;-79
2021/08/02 06:23:24;;;;;;;5.10;1.20;;;16.00;94.70;;;;;;5008300;28;20072;-79
2021/08/02 06:25:50;;;;;;;1.85;1.00;;;16.00;94.70;;;;;;4992669;28;20042;-79
2021/08/02 06:28:16;;;;;;;2.88;1.00;;;16.00;94.70;;;;;;4991655;28;20087;-79
2021/08/02 06:30:41;;;;;;;3.65;1.30;;;16.00;94.60;;;;;;4991336;28;20025;-79
2021/08/02 06:33:07;;;;;;;4.90;1.30;;;16.00;94.60;;;;;;4991838;28;20057;-79
2021/08/02 06:35:36;;;;;;;2.47;1.42;;;16.00;94.60;;;;;;4991186;28;20014;-79
2021/08/02 06:38:02;;;;;;;4.68;1.33;;;16.00;94.50;;;;;;4992981;28;20109;-79
2021/08/02 06:40:28;;;;;;;1.95;1.08;;;16.00;94.50;;;;;;4991162;28;20161;-80
2021/08/02 06:42:53;;;;;;;2.83;1.30;;;16.10;94.70;;;;;;4991898;28;20125;-79
2021/08/02 06:45:19;;;;;;;2.80;1.13;;;16.10;94.30;;;;;;4991715;28;20161;-79
2021/08/02 06:47:45;;;;;;;2.70;1.17;;;16.10;94.30;;;;;;4992381;28;20030;-79
2021/08/02 06:50:11;;;;;;;2.42;1.20;;;16.10;94.40;;;;;;5008002;28;20026;-79
2021/08/02 06:52:36;;;;;;;2.35;1.15;;;16.10;94.10;;;;;;4990996;28;20485;-79
2021/08/02 06:55:02;;;;;;;4.88;1.42;;;16.10;94.10;;;;;;4993060;28;20018;-79
2021/08/02 06:57:28;;;;;;;3.72;0.90;;;16.20;94.20;;;;;;4991934;28;20045;-80
2021/08/02 06:59:55;;;;;;;0.95;0.75;;;16.20;94.20;;;;;;4992724;28;20022;-79
2021/08/02 07:02:21;;;;;;;2.42;0.88;;;16.30;94.20;;;;;;5007798;28;20014;-79
2021/08/02 07:04:46;;;;;;;2.53;0.98;;;16.30;94.20;;;;;;5007259;28;20443;-78
2021/08/02 07:07:12;;;;;;;2.35;1.23;;;16.30;94.00;;;;;;4991411;28;20026;-78
2021/08/02 07:09:38;;;;;;;1.95;0.80;;;16.30;93.30;;;;;;4990676;28;20497;-78
2021/08/02 07:12:04;;;;;;;1.67;0.90;;;16.40;93.60;;;;;;4991534;28;20458;-79
2021/08/02 07:14:30;;;;;;;3.30;1.20;;;16.30;93.60;;;;;;4992123;28;20087;-78
2021/08/02 07:16:55;;;;;;;2.63;1.08;;;16.40;93.50;;;;;;4992736;28;20094;-79
2021/08/02 07:19:21;;;;;;;5.10;0.90;;;16.40;93.40;;;;;;4996044;28;20023;-78
2021/08/02 07:21:47;;;;;;;1.50;0.90;;;16.50;93.50;;;;;;5010974;28;20029;-79
2021/08/02 07:24:12;;;;;;;1.67;0.80;;;16.50;93.20;;;;;;4995391;28;20014;-78
2021/08/02 07:26:38;;;;;;;1.20;0.80;;;16.50;93.00;;;;;;5010950;28;20018;-79
2021/08/02 07:29:04;;;;;;;2.72;0.88;;;16.60;92.70;;;;;;4996252;28;20018;-79
2021/08/02 07:31:30;;;;;;;1.75;0.70;;;16.60;92.70;;;;;;4996524;28;20065;-80
2021/08/02 07:33:56;;;;;;;2.15;1.05;;;16.70;92.60;;;;;;4995223;28;20041;-78
2021/08/02 07:36:22;;;;;;;2.75;1.10;;;16.70;92.10;;;;;;4995017;28;20446;-78
2021/08/02 07:38:47;;;;;;;3.97;1.15;;;16.80;92.00;;;;;;4994355;28;20037;-78
2021/08/02 07:41:13;;;;;;;0.85;0.82;;;16.80;91.90;;;;;;5011353;28;20450;-78
2021/08/02 07:43:39;;;;;;;2.33;0.75;;;16.80;91.70;;;;;;4994339;28;20073;-78
2021/08/02 07:46:05;;;;;;;1.17;0.85;;;16.90;91.90;;;;;;4994901;28;20018;-79
2021/08/02 07:48:31;;;;;;;2.67;0.95;;;17.00;91.90;;;;;;4994873;28;20030;-80
2021/08/02 07:50:57;;;;;;;1.30;0.75;;;17.00;91.40;;;;;;4994888;28;20025;-79
2021/08/02 07:53:23;;;;;;;2.42;0.80;;;17.00;91.30;;;;;;4994733;28;20025;-80
2021/08/02 07:55:49;;;;;;;2.10;1.17;;;17.00;91.20;;;;;;4994062;28;20018;-79
2021/08/02 07:58:14;;;;;;;2.75;0.90;;;17.00;90.80;;;;;;4994643;28;20033;-79
2021/08/02 08:00:40;;;;;;;2.33;0.85;;;17.10;91.10;;;;;;4994053;28;20022;-80
2021/08/02 08:03:06;;;;;;;1.98;1.00;;;17.10;91.10;;;;;;4994611;28;20014;-79
2021/08/02 08:05:32;;;;;;;1.45;0.60;;;17.10;91.10;;;;;;4995695;28;20355;-79
2021/08/02 08:07:58;;;;;;;1.60;0.70;;;17.10;91.20;;;;;;4995525;28;20050;-79
2021/08/02 08:10:27;;;;;;;2.08;0.93;;;17.10;91.10;;;;;;4994558;28;20033;-79
2021/08/02 08:12:54;;;;;;;2.00;0.88;;;17.10;91.20;;;;;;4993870;28;20423;-79
2021/08/02 08:15:21;;;;;;;3.45;1.00;;;17.10;90.90;;;;;;4994328;28;20023;-79
2021/08/02 08:17:47;;;;;;;3.08;1.05;;;17.20;90.70;;;;;;4993665;28;20019;-79
2021/08/02 08:20:16;;;;;;;5.10;0.90;;;17.30;90.70;;;;;;4995963;28;20029;-79
2021/08/02 08:22:42;;;;;;;4.10;1.00;;;17.40;90.60;;;;;;4994944;28;20032;-78
2021/08/02 08:25:09;;;;;;;3.38;1.23;;;17.50;89.60;;;;;;4995829;28;20452;-80
2021/08/02 08:27:35;;;;;;;1.73;1.10;;;17.50;89.60;;;;;;5009924;28;20026;-78
2021/08/02 08:30:00;;;;;;;2.67;1.25;;;17.50;89.10;;;;;;4993053;28;20023;-80
2021/08/02 08:32:27;;;;;;;4.03;1.13;;;17.40;89.10;;;;;;4994400;28;20109;-80
2021/08/02 08:34:53;;;;;;;1.52;0.73;;;17.40;89.40;;;;;;4994447;28;20367;-80
2021/08/02 08:37:19;;;;;;;3.42;1.08;;;17.50;89.90;;;;;;4995522;28;20022;-80
2021/08/02 08:39:45;;;;;;;1.52;1.02;;;17.50;89.60;;;;;;4993208;28;20114;-80
2021/08/02 08:42:13;;;;;;;2.30;0.95;;;17.60;89.70;;;;;;5010536;28;20034;-77
2021/08/02 08:44:39;;;;;;;3.10;1.00;;;17.70;89.70;;;;;;4994502;28;20025;-78
2021/08/02 08:47:05;;;;;;;2.72;1.13;;;17.70;89.70;;;;;;4995351;28;20493;-80
2021/08/02 08:49:31;;;;;;;1.88;1.17;;;17.70;89.90;;;;;;4993772;28;20105;-78
2021/08/02 08:51:57;;;;;;;2.17;0.90;;;17.80;90.10;;;;;;4993112;28;20105;-77
2021/08/02 08:54:22;;;;;;;1.55;0.85;;;17.70;90.00;;;;;;4993670;28;20022;-78
2021/08/02 08:56:48;;;;;;;1.52;0.70;;;17.80;89.50;;;;;;4993942;28;20116;-77
2021/08/02 08:59:14;;;;;;;2.42;1.23;;;17.70;89.20;;;;;;4995189;28;20042;-80
2021/08/02 09:01:40;;;;;;;1.08;0.80;;;17.70;89.00;;;;;;4994211;28;20022;-80
2021/08/02 09:04:07;;;;;;;1.05;0.80;;;17.70;88.80;;;;;;4994864;28;20102;-80
2021/08/02 09:06:47;;;;;;;1.17;0.88;;;17.70;88.70;;;;;;4993456;28;20105;-80
2021/08/02 09:09:28;;;;;;;1.88;0.90;;;17.70;88.90;;;;;;4994430;28;20046;-80
2021/08/02 09:12:07;;;;;;;1.23;0.80;;;17.80;88.00;;;;;;4993903;28;20523;-80
2021/08/02 09:14:33;;;;;;;1.92;0.90;;;17.70;88.50;;;;;;4993261;28;20068;-80
2021/08/02 09:17:00;;;;;;;1.88;0.98;;;17.70;88.70;;;;;;4992552;28;20164;-80
2021/08/02 09:19:38;;;;;;;1.90;0.85;;;17.80;89.00;;;;;;4993141;28;20033;-80
2021/08/02 09:22:04;;;;;;;1.70;0.93;;;17.80;89.30;;;;;;5009562;28;20019;-80
2021/08/02 09:24:31;;;;;;;3.85;1.13;;;17.90;89.10;;;;;;4994436;28;20030;-78
2021/08/02 09:26:57;;;;;;;1.15;0.80;;;17.90;88.50;;;;;;4993319;28;20015;-78
2021/08/02 09:29:30;;;;;;;1.88;0.90;;;18.00;88.60;;;;;;4993018;28;20018;-77
2021/08/02 09:31:56;;;;;;;4.20;1.02;;;18.00;88.70;;;;;;4993887;28;20010;-78
2021/08/02 09:34:23;;;;;;;2.80;0.90;;;18.10;87.20;;;;;;4992867;28;20481;-80
2021/08/02 09:36:59;;;;;;;2.65;1.00;;;18.10;87.20;;;;;;4992367;28;20067;-78
2021/08/02 09:39:32;;;;;;;0.88;0.80;;;18.10;87.10;;;;;;4993077;28;20241;-79
2021/08/02 09:42:03;;;;;;;4.38;1.15;;;18.20;87.50;;;;;;4991955;28;20026;-78
2021/08/02 09:44:29;;;;;;;1.52;1.00;;;18.20;86.80;;;;;;4992889;28;20022;-79
2021/08/02 09:47:04;;;;;;;1.38;0.90;;;18.20;87.30;;;;;;4993443;28;20340;-79
2021/08/02 09:49:45;;;;;;;3.83;1.17;;;18.30;87.80;;;;;;4992766;28;20025;-79
2021/08/02 09:52:11;;;;;;;3.05;1.13;;;18.30;87.80;;;;;;4992560;28;20026;-78
2021/08/02 09:54:37;;;;;;;1.38;0.95;;;18.30;87.30;;;;;;4992399;28;20108;-78
2021/08/02 09:57:05;;;;;;;5.88;1.60;;;18.30;87.50;;;;;;4991709;28;20113;-78
2021/08/02 09:59:31;;;;;;;2.75;1.10;;;18.40;86.40;;;;;;4992460;28;20030;-78
2021/08/02 10:01:58;;;;;;;2.03;1.05;;;18.30;86.10;;;;;;4992721;28;20022;-78
2021/08/02 10:04:24;;;;;;;2.58;1.05;;;18.30;86.90;;;;;;5008681;28;20061;-78
2021/08/02 10:06:51;;;;;;;2.38;1.17;;;18.30;85.80;;;;;;4992842;28;20023;-78
2021/08/02 10:09:17;;;;;;;1.30;0.93;;;18.20;86.70;;;;;;4993367;28;20038;-78
2021/08/02 10:11:42;;;;;;;2.50;0.98;;;18.10;87.10;;;;;;4992586;28;20026;-79
2021/08/02 10:14:10;;;;;;;3.92;1.20;;;18.20;87.40;;;;;;4992257;28;20092;-78
2021/08/02 10:16:39;;;;;;;2.13;1.00;;;18.10;86.30;;;;;;4993450;28;20022;-78
2021/08/02 10:19:10;;;;;;;3.03;1.10;;;18.20;86.10;;;;;;4991297;28;20022;-78
2021/08/02 10:21:48;;;;;;;3.25;0.85;;;18.20;86.50;;;;;;4992191;28;20069;-78
2021/08/02 10:24:16;;;;;;;2.47;0.88;;;18.10;86.10;;;;;;4992180;28;20117;-79
2021/08/02 10:26:57;;;;;;;1.42;0.80;;;18.10;86.30;;;;;;4991880;28;20347;-78
2021/08/02 10:29:23;;;;;;;2.90;1.00;;;18.10;86.70;;;;;;4991976;28;20081;-78
2021/08/02 10:31:51;;;;;;;1.48;1.25;;;18.10;87.00;;;;;;4991250;28;20022;-77
2021/08/02 10:34:25;;;;;;;1.85;0.80;;;18.10;86.70;;;;;;4991912;28;20454;-78
2021/08/02 10:37:01;;;;;;;1.17;0.77;;;18.20;86.50;;;;;;4991122;28;20067;-78
2021/08/02 10:39:28;;;;;;;2.80;1.02;;;18.30;86.60;;;;;;4993183;28;20034;-78
2021/08/02 10:42:24;;;;;;;1.67;0.70;;;18.40;86.10;;;;;;4991065;28;20076;-79
2021/08/02 10:44:57;;;;;;;1.10;0.70;;;18.60;85.50;;;;;;4974398;28;20038;-79
2021/08/02 10:47:23;;;;;;;1.95;1.10;;;18.60;85.20;;;;;;4991602;28;20058;-79
2021/08/02 10:49:53;;;;;;;0.98;0.50;;;18.70;84.80;;;;;;4991062;28;20021;-78
2021/08/02 10:52:30;;;;;;;3.40;1.45;;;18.80;85.20;;;;;;5007351;28;20044;-78
2021/08/02 10:54:56;;;;;;;1.33;0.90;;;18.90;85.10;;;;;;4992493;28;20033;-79
2021/08/02 10:57:22;;;;;;;1.95;0.55;;;18.90;84.40;;;;;;4992463;28;20054;-78
2021/08/02 10:59:48;;;;;;;2.15;0.80;;;19.00;84.20;;;;;;4990945;28;20098;-78
2021/08/02 11:02:14;;;;;;;1.27;1.00;;;19.10;83.00;;;;;;4992685;28;20089;-79
2021/08/02 11:04:41;;;;;;;2.83;0.75;;;19.10;81.10;;;;;;4992873;28;20026;-78
2021/08/02 11:07:08;;;;;;;2.28;1.00;;;19.10;81.30;;;;;;4990787;28;20351;-78
2021/08/02 11:09:36;;;;;;;2.25;0.85;;;19.10;80.70;;;;;;4991123;28;20046;-79
2021/08/02 11:12:08;;;;;;;2.30;0.65;;;19.20;81.20;;;;;;4990822;28;20109;-78
2021/08/02 11:14:53;;;;;;;2.92;0.70;;;19.20;80.70;;;;;;4992699;28;20462;-78
2021/08/02 11:17:24;;;;;;;2.03;0.88;;;19.10;81.10;;;;;;4992634;28;20451;-77
2021/08/02 11:20:01;;;;;;;1.42;0.73;;;19.10;79.70;;;;;;4990639;28;20091;-77
2021/08/02 11:22:27;;;;;;;1.42;0.80;;;19.10;80.60;;;;;;4992581;28;20023;-78
2021/08/02 11:24:57;;;;;;;3.22;1.10;;;19.10;80.80;;;;;;4990695;28;20370;-77
2021/08/02 11:27:23;;;;;;;2.25;0.85;;;19.10;80.70;;;;;;4992692;28;20026;-77
2021/08/02 11:29:54;;;;;;;2.08;0.90;;;19.10;80.40;;;;;;4991923;28;20102;-76
2021/08/02 11:32:21;;;;;;;3.42;0.85;;;19.10;79.30;;;;;;4991123;28;20019;-77
2021/08/02 11:34:57;;;;;;;2.20;0.95;;;19.20;78.20;;;;;;5007541;28;20019;-77
2021/08/02 11:37:27;;;;;;;1.40;0.80;;;19.20;78.60;;;;;;4991028;28;20022;-77
2021/08/02 11:40:05;;;;;;;2.83;1.00;;;19.30;78.00;;;;;;4990463;28;20049;-77
2021/08/02 11:42:32;;;;;;;1.98;0.88;;;19.30;76.50;;;;;;4990801;28;20022;-77
2021/08/02 11:44:59;;;;;;;2.47;0.77;;;19.30;77.40;;;;;;4990447;28;20027;-77
2021/08/02 11:47:27;;;;;;;1.08;0.82;;;19.30;77.70;;;;;;4990923;28;20022;-76
2021/08/02 11:49:56;;;;;;;1.33;0.68;;;19.20;76.40;;;;;;4990325;28;20505;-77
2021/08/02 11:52:24;;;;;;;1.70;0.70;;;19.20;76.80;;;;;;4992038;28;20068;-76
2021/08/02 11:55:06;;;;;;;1.65;1.02;;;19.20;77.40;;;;;;4990383;28;20420;-77
2021/08/02 11:57:33;;;;;;;2.55;0.85;;;19.30;77.60;;;;;;4990908;28;20030;-77
2021/08/02 12:00:05;;;;;;;2.13;0.60;;;19.30;76.40;;;;;;4990363;28;20022;-76
2021/08/02 12:02:37;;;;;;;1.00;0.63;;;19.40;76.10;;;;;;4991044;28;20370;-76
2021/08/02 12:05:06;;;;;;;1.00;0.90;;;19.60;75.60;;;;;;5009382;28;20492;-76
2021/08/02 12:07:32;;;;;;;2.65;0.90;;;19.70;75.00;;;;;;4994463;28;20022;-76
2021/08/02 12:10:17;;;;;;;1.23;0.80;;;19.70;73.90;;;;;;4993410;28;20038;-76
2021/08/02 12:12:57;;;;;;;1.42;0.70;;;19.70;72.00;;;;;;5010477;28;20105;-76
2021/08/02 12:15:23;;;;;;;1.33;0.77;;;19.70;72.50;;;;;;4994338;28;20021;-76
2021/08/02 12:17:49;;;;;;;1.83;1.00;;;19.80;73.40;;;;;;4994251;28;20022;-76
2021/08/02 12:20:16;;;;;;;2.38;0.80;;;19.80;72.70;;;;;;4995542;28;20034;-76
2021/08/02 12:22:41;;;;;;;3.03;0.85;;;19.80;72.50;;;;;;4994346;28;20054;-76
2021/08/02 12:25:08;;;;;;;0.85;0.70;;;19.80;71.90;;;;;;4993562;28;20061;-76
2021/08/02 12:27:34;;;;;;;1.00;0.60;;;19.90;72.50;;;;;;4995435;28;20080;-76
2021/08/02 12:30:05;;;;;;;1.60;0.82;;;20.00;72.50;;;;;;4994822;28;20046;-76
2021/08/02 12:32:38;;;;;;;0.70;0.50;;;20.00;71.90;;;;;;5010473;28;20026;-76
2021/08/02 12:35:05;;;;;;;3.83;0.88;;;20.10;71.00;;;;;;4994639;28;20018;-76
2021/08/02 12:37:31;;;;;;;1.13;0.70;;;20.10;69.30;;;;;;4993814;28;20034;-75
2021/08/02 12:39:57;;;;;;;0.95;0.75;;;20.10;69.60;;;;;;4994702;28;20105;-76
2021/08/02 12:42:26;;;;;;;1.20;0.80;;;20.20;68.40;;;;;;4995163;28;20157;-76
2021/08/02 12:44:54;;;;;;;1.17;0.60;;;20.30;68.70;;;;;;4994745;28;20359;-77
2021/08/02 12:47:23;;;;;;;1.52;0.52;;;20.20;68.90;;;;;;5010449;28;20049;-76
2021/08/02 12:49:49;;;;;;;1.90;0.90;;;20.20;70.10;;;;;;4994928;28;20068;-76
2021/08/02 12:52:18;;;;;;;1.75;0.80;;;20.10;69.30;;;;;;4994440;28;20046;-76